sensor_id;sensor_type;location;lat;lon;timestamp;pressure;altitude;pressure_sealevel;temperature;humidity
30339;BME280;795;49.296;11.348;2023-06-14T00:01:48;95992.41;;;16.27;55.04
30339;BME280;795;49.296;11.348;2023-06-14T00:04:15;96000.94;;;16.24;55.18
30339;BME280;795;49.296;11.348;2023-06-14T00:06:47;95973.09;;;16.10;55.57
30339;BME280;795;49.296;11.348;2023-06-14T00:09:17;95888.31;;;15.52;55.67
30339;BME280;795;49.296;11.348;2023-06-14T00:11:45;95989.97;;;16.06;56.16
30339;BME280;795;49.296;11.348;2023-06-14T00:14:12;95985.38;;;16.13;56.27
30339;BME280;795;49.296;11.348;2023-06-14T00:16:40;95966.22;;;16.01;56.28
30339;BME280;795;49.296;11.348;2023-06-14T00:19:09;95979.16;;;16.06;56.48
30339;BME280;795;49.296;11.348;2023-06-14T00:21:38;95863.56;;;15.29;56.95
30339;BME280;795;49.296;11.348;2023-06-14T00:24:07;95936.13;;;15.65;57.13
30339;BME280;795;49.296;11.348;2023-06-14T00:26:34;95885.19;;;15.36;57.35
30339;BME280;795;49.296;11.348;2023-06-14T00:29:01;95990.22;;;15.91;57.53
30339;BME280;795;49.296;11.348;2023-06-14T00:31:28;95990.03;;;15.86;57.71
30339;BME280;795;49.296;11.348;2023-06-14T00:33:55;95979.00;;;15.81;57.96
30339;BME280;795;49.296;11.348;2023-06-14T00:36:22;95951.13;;;15.61;58.16
30339;BME280;795;49.296;11.348;2023-06-14T00:38:49;95928.47;;;15.42;58.70
30339;BME280;795;49.296;11.348;2023-06-14T00:41:16;95940.31;;;15.41;59.21
30339;BME280;795;49.296;11.348;2023-06-14T00:43:43;95947.19;;;15.37;59.88
30339;BME280;795;49.296;11.348;2023-06-14T00:46:10;95972.78;;;15.41;60.16
30339;BME280;795;49.296;11.348;2023-06-14T00:48:39;95902.72;;;14.94;60.44
30339;BME280;795;49.296;11.348;2023-06-14T00:51:07;95968.63;;;15.32;61.06
30339;BME280;795;49.296;11.348;2023-06-14T00:53:34;95965.94;;;15.32;61.28
30339;BME280;795;49.296;11.348;2023-06-14T00:56:03;95946.16;;;15.12;62.05
30339;BME280;795;49.296;11.348;2023-06-14T00:58:32;95957.00;;;15.18;62.42
30339;BME280;795;49.296;11.348;2023-06-14T01:00:59;95917.06;;;14.81;63.01
30339;BME280;795;49.296;11.348;2023-06-14T01:03:26;95971.75;;;14.96;64.30
30339;BME280;795;49.296;11.348;2023-06-14T01:06:09;95903.25;;;14.37;66.11
30339;BME280;795;49.296;11.348;2023-06-14T01:12:14;95975.84;;;14.53;68.54
30339;BME280;795;49.296;11.348;2023-06-14T01:14:42;95977.09;;;14.63;68.12
30339;BME280;795;49.296;11.348;2023-06-14T01:17:11;95880.28;;;13.93;68.84
30339;BME280;795;49.296;11.348;2023-06-14T01:19:43;95977.47;;;14.41;70.10
30339;BME280;795;49.296;11.348;2023-06-14T01:22:11;95977.59;;;14.26;71.58
30339;BME280;795;49.296;11.348;2023-06-14T01:24:38;95975.28;;;14.23;71.94
30339;BME280;795;49.296;11.348;2023-06-14T01:27:07;95958.16;;;14.03;72.89
30339;BME280;795;49.296;11.348;2023-06-14T01:29:35;95909.22;;;13.65;74.60
30339;BME280;795;49.296;11.348;2023-06-14T01:32:05;95945.44;;;13.90;74.97
30339;BME280;795;49.296;11.348;2023-06-14T01:34:32;95972.47;;;13.97;75.69
30339;BME280;795;49.296;11.348;2023-06-14T01:37:02;95945.00;;;13.80;76.22
30339;BME280;795;49.296;11.348;2023-06-14T01:39:30;95894.16;;;13.43;77.61
30339;BME280;795;49.296;11.348;2023-06-14T01:41:59;95962.84;;;13.88;77.62
30339;BME280;795;49.296;11.348;2023-06-14T01:44:29;95953.66;;;13.76;77.57
30339;BME280;795;49.296;11.348;2023-06-14T01:46:57;95961.22;;;13.87;78.32
30339;BME280;795;49.296;11.348;2023-06-14T01:49:25;95941.59;;;13.65;78.16
30339;BME280;795;49.296;11.348;2023-06-14T01:51:52;95887.78;;;13.51;77.39
30339;BME280;795;49.296;11.348;2023-06-14T01:54:19;95935.84;;;13.81;77.80
30339;BME280;795;49.296;11.348;2023-06-14T01:56:48;95927.03;;;13.60;78.88
30339;BME280;795;49.296;11.348;2023-06-14T01:59:15;95902.34;;;13.56;78.81
30339;BME280;795;49.296;11.348;2023-06-14T02:01:42;95965.75;;;13.80;80.00
30339;BME280;795;49.296;11.348;2023-06-14T02:04:09;95962.34;;;13.71;80.68
30339;BME280;795;49.296;11.348;2023-06-14T02:06:37;95961.50;;;13.64;80.75
30339;BME280;795;49.296;11.348;2023-06-14T02:09:04;95962.53;;;13.63;80.97
30339;BME280;795;49.296;11.348;2023-06-14T02:11:31;95934.81;;;13.42;82.05
30339;BME280;795;49.296;11.348;2023-06-14T02:13:58;95939.13;;;13.36;82.91
30339;BME280;795;49.296;11.348;2023-06-14T02:16:26;95875.81;;;12.98;82.89
30339;BME280;795;49.296;11.348;2023-06-14T02:18:55;95929.28;;;13.22;83.50
30339;BME280;795;49.296;11.348;2023-06-14T02:21:22;95869.06;;;12.81;83.54
30339;BME280;795;49.296;11.348;2023-06-14T02:23:49;95952.38;;;13.31;82.91
30339;BME280;795;49.296;11.348;2023-06-14T02:26:16;95939.63;;;13.18;84.73
30339;BME280;795;49.296;11.348;2023-06-14T02:28:43;95969.31;;;13.25;85.53
30339;BME280;795;49.296;11.348;2023-06-14T02:31:10;95962.91;;;13.26;84.28
30339;BME280;795;49.296;11.348;2023-06-14T02:33:37;95964.59;;;13.27;84.97
30339;BME280;795;49.296;11.348;2023-06-14T02:36:05;95871.63;;;12.68;85.05
30339;BME280;795;49.296;11.348;2023-06-14T02:38:32;95917.38;;;12.89;86.12
30339;BME280;795;49.296;11.348;2023-06-14T02:40:59;95947.09;;;12.95;86.79
30339;BME280;795;49.296;11.348;2023-06-14T02:43:29;95969.91;;;12.99;87.33
30339;BME280;795;49.296;11.348;2023-06-14T02:45:56;95961.59;;;12.94;87.59
30339;BME280;795;49.296;11.348;2023-06-14T02:48:23;95967.34;;;12.91;87.87
30339;BME280;795;49.296;11.348;2023-06-14T02:50:50;95904.19;;;12.45;89.49
30339;BME280;795;49.296;11.348;2023-06-14T02:53:17;95946.41;;;12.65;89.55
30339;BME280;795;49.296;11.348;2023-06-14T02:55:45;95935.31;;;12.54;90.31
30339;BME280;795;49.296;11.348;2023-06-14T02:58:14;95861.09;;;12.03;91.09
30339;BME280;795;49.296;11.348;2023-06-14T03:00:42;95925.13;;;12.49;90.42
30339;BME280;795;49.296;11.348;2023-06-14T03:03:09;95969.06;;;12.71;91.08
30339;BME280;795;49.296;11.348;2023-06-14T03:05:48;95863.16;;;12.01;90.82
30339;BME280;795;49.296;11.348;2023-06-14T03:08:17;95911.78;;;12.41;90.28
30339;BME280;795;49.296;11.348;2023-06-14T03:10:46;95968.59;;;12.68;91.25
30339;BME280;795;49.296;11.348;2023-06-14T03:13:15;95972.50;;;12.65;91.79
30339;BME280;795;49.296;11.348;2023-06-14T03:15:42;95977.03;;;12.64;90.82
30339;BME280;795;49.296;11.348;2023-06-14T03:18:09;95943.19;;;12.55;90.30
30339;BME280;795;49.296;11.348;2023-06-14T03:20:37;95933.59;;;12.46;89.72
30339;BME280;795;49.296;11.348;2023-06-14T03:23:05;95931.53;;;12.48;88.55
30339;BME280;795;49.296;11.348;2023-06-14T03:25:33;95970.63;;;12.87;87.51
30339;BME280;795;49.296;11.348;2023-06-14T03:28:02;95974.94;;;12.81;87.03
30339;BME280;795;49.296;11.348;2023-06-14T03:30:30;95987.94;;;12.99;85.80
30339;BME280;795;49.296;11.348;2023-06-14T03:32:58;95979.44;;;12.95;86.27
30339;BME280;795;49.296;11.348;2023-06-14T03:35:29;95901.59;;;12.37;86.33
30339;BME280;795;49.296;11.348;2023-06-14T03:37:56;95974.09;;;12.81;86.66
30339;BME280;795;49.296;11.348;2023-06-14T03:40:23;95996.44;;;12.96;86.68
30339;BME280;795;49.296;11.348;2023-06-14T03:42:56;95892.63;;;12.30;86.57
30339;BME280;795;49.296;11.348;2023-06-14T03:45:23;95884.09;;;12.26;86.89
30339;BME280;795;49.296;11.348;2023-06-14T03:47:50;96003.22;;;12.92;87.87
30339;BME280;795;49.296;11.348;2023-06-14T03:50:18;95993.47;;;12.91;86.54
30339;BME280;795;49.296;11.348;2023-06-14T03:52:48;95947.03;;;12.68;85.75
30339;BME280;795;49.296;11.348;2023-06-14T03:55:15;96010.88;;;13.09;85.12
30339;BME280;795;49.296;11.348;2023-06-14T03:57:45;95990.88;;;13.04;85.30
30339;BME280;795;49.296;11.348;2023-06-14T04:00:13;95940.44;;;12.70;86.14
30339;BME280;795;49.296;11.348;2023-06-14T04:02:40;96011.88;;;13.08;85.64
30339;BME280;795;49.296;11.348;2023-06-14T04:05:08;96008.72;;;13.05;86.61
30339;BME280;795;49.296;11.348;2023-06-14T04:07:36;95995.75;;;12.94;86.06
30339;BME280;795;49.296;11.348;2023-06-14T04:10:16;95923.56;;;12.40;85.77
30339;BME280;795;49.296;11.348;2023-06-14T04:12:43;95945.41;;;12.67;86.05
30339;BME280;795;49.296;11.348;2023-06-14T04:15:10;95922.44;;;12.49;85.90
30339;BME280;795;49.296;11.348;2023-06-14T04:17:47;96027.94;;;13.16;85.85
30339;BME280;795;49.296;11.348;2023-06-14T04:20:14;96021.69;;;13.16;86.42
30339;BME280;795;49.296;11.348;2023-06-14T04:22:42;96017.63;;;13.20;85.87
30339;BME280;795;49.296;11.348;2023-06-14T04:25:10;96002.59;;;13.11;85.70
30339;BME280;795;49.296;11.348;2023-06-14T04:27:37;96030.75;;;13.29;85.86
30339;BME280;795;49.296;11.348;2023-06-14T04:30:06;96029.31;;;13.34;85.44
30339;BME280;795;49.296;11.348;2023-06-14T04:32:34;96039.53;;;13.38;85.73
30339;BME280;795;49.296;11.348;2023-06-14T04:35:09;95987.72;;;13.15;85.85
30339;BME280;795;49.296;11.348;2023-06-14T04:37:36;96021.81;;;13.29;86.26
30339;BME280;795;49.296;11.348;2023-06-14T04:40:08;95940.31;;;12.78;85.09
30339;BME280;795;49.296;11.348;2023-06-14T04:42:38;95994.13;;;13.14;86.64
30339;BME280;795;49.296;11.348;2023-06-14T04:45:08;95940.94;;;12.80;86.27
30339;BME280;795;49.296;11.348;2023-06-14T04:47:36;96002.41;;;13.12;86.41
30339;BME280;795;49.296;11.348;2023-06-14T04:50:05;96018.63;;;13.19;86.93
30339;BME280;795;49.296;11.348;2023-06-14T04:52:32;96039.66;;;13.30;87.46
30339;BME280;795;49.296;11.348;2023-06-14T04:54:59;96038.38;;;13.26;88.09
30339;BME280;795;49.296;11.348;2023-06-14T04:57:26;95976.41;;;12.84;88.94
30339;BME280;795;49.296;11.348;2023-06-14T04:59:53;95920.38;;;12.51;88.57
30339;BME280;795;49.296;11.348;2023-06-14T05:02:23;96039.28;;;13.33;88.54
30339;BME280;795;49.296;11.348;2023-06-14T05:04:51;95885.72;;;12.42;88.09
30339;BME280;795;49.296;11.348;2023-06-14T05:07:18;96017.84;;;13.25;88.67
30339;BME280;795;49.296;11.348;2023-06-14T05:09:46;96019.91;;;13.23;89.01
30339;BME280;795;49.296;11.348;2023-06-14T05:12:13;96001.19;;;13.15;89.02
30339;BME280;795;49.296;11.348;2023-06-14T05:14:45;95978.22;;;12.98;89.60
30339;BME280;795;49.296;11.348;2023-06-14T05:17:12;95915.94;;;12.65;90.09
30339;BME280;795;49.296;11.348;2023-06-14T05:19:39;96065.81;;;13.57;89.55
30339;BME280;795;49.296;11.348;2023-06-14T05:22:07;95992.19;;;13.29;89.52
30339;BME280;795;49.296;11.348;2023-06-14T05:24:34;96069.47;;;13.71;88.38
30339;BME280;795;49.296;11.348;2023-06-14T05:27:01;95935.84;;;12.92;89.49
30339;BME280;795;49.296;11.348;2023-06-14T05:29:28;96062.63;;;13.75;89.83
30339;BME280;795;49.296;11.348;2023-06-14T05:31:56;96058.09;;;13.82;90.23
30339;BME280;795;49.296;11.348;2023-06-14T05:34:24;96061.44;;;13.84;89.25
30339;BME280;795;49.296;11.348;2023-06-14T05:36:51;96067.06;;;13.89;88.38
30339;BME280;795;49.296;11.348;2023-06-14T05:39:18;96051.88;;;13.81;89.17
30339;BME280;795;49.296;11.348;2023-06-14T05:41:45;96075.09;;;14.10;88.71
30339;BME280;795;49.296;11.348;2023-06-14T05:44:14;96076.81;;;14.24;88.49
30339;BME280;795;49.296;11.348;2023-06-14T05:46:41;96034.81;;;14.43;85.68
30339;BME280;795;49.296;11.348;2023-06-14T05:49:08;96007.09;;;15.08;80.53
30339;BME280;795;49.296;11.348;2023-06-14T05:51:35;96080.56;;;15.38;79.13
30339;BME280;795;49.296;11.348;2023-06-14T05:54:02;96076.81;;;15.25;81.09
30339;BME280;795;49.296;11.348;2023-06-14T05:56:29;96055.19;;;15.25;80.41
30339;BME280;795;49.296;11.348;2023-06-14T05:58:56;96061.22;;;15.21;81.66
30339;BME280;795;49.296;11.348;2023-06-14T06:01:23;96047.66;;;15.01;81.77
30339;BME280;795;49.296;11.348;2023-06-14T06:03:50;96090.13;;;15.34;82.58
30339;BME280;795;49.296;11.348;2023-06-14T06:06:17;96038.31;;;15.10;81.01
30339;BME280;795;49.296;11.348;2023-06-14T06:08:44;96085.97;;;15.38;80.09
30339;BME280;795;49.296;11.348;2023-06-14T06:11:11;96046.19;;;15.12;79.60
30339;BME280;795;49.296;11.348;2023-06-14T06:13:39;96090.16;;;15.40;78.78
30339;BME280;795;49.296;11.348;2023-06-14T06:16:07;96048.53;;;15.35;77.47
30339;BME280;795;49.296;11.348;2023-06-14T06:18:34;96095.69;;;16.43;73.34
30339;BME280;795;49.296;11.348;2023-06-14T06:21:03;96049.50;;;16.83;68.53
30339;BME280;795;49.296;11.348;2023-06-14T06:23:30;96101.75;;;17.41;66.74
30339;BME280;795;49.296;11.348;2023-06-14T06:25:57;96003.78;;;16.48;67.17
30339;BME280;795;49.296;11.348;2023-06-14T06:28:24;96115.00;;;17.24;67.91
30339;BME280;795;49.296;11.348;2023-06-14T06:30:51;96109.63;;;17.49;67.67
30339;BME280;795;49.296;11.348;2023-06-14T06:33:18;96066.84;;;17.75;64.59
30339;BME280;795;49.296;11.348;2023-06-14T06:35:45;96120.00;;;17.89;62.62
30339;BME280;795;49.296;11.348;2023-06-14T06:38:12;96124.34;;;17.66;65.80
30339;BME280;795;49.296;11.348;2023-06-14T06:40:39;96117.09;;;17.60;63.72
30339;BME280;795;49.296;11.348;2023-06-14T06:43:06;96117.97;;;17.85;62.93
30339;BME280;795;49.296;11.348;2023-06-14T06:45:33;96127.53;;;18.12;62.15
30339;BME280;795;49.296;11.348;2023-06-14T06:48:00;96127.19;;;18.02;61.75
30339;BME280;795;49.296;11.348;2023-06-14T06:50:27;96139.66;;;18.34;61.72
30339;BME280;795;49.296;11.348;2023-06-14T06:52:55;96124.19;;;18.60;59.75
30339;BME280;795;49.296;11.348;2023-06-14T06:55:22;96135.22;;;18.65;59.59
30339;BME280;795;49.296;11.348;2023-06-14T06:57:49;96140.72;;;18.76;59.15
30339;BME280;795;49.296;11.348;2023-06-14T07:00:17;96142.34;;;19.50;57.73
30339;BME280;795;49.296;11.348;2023-06-14T07:02:45;96079.03;;;19.54;54.94
30339;BME280;795;49.296;11.348;2023-06-14T07:05:13;96136.53;;;19.99;54.44
30339;BME280;795;49.296;11.348;2023-06-14T07:07:40;96122.47;;;20.02;54.65
30339;BME280;795;49.296;11.348;2023-06-14T07:10:07;96146.56;;;20.40;53.61
30339;BME280;795;49.296;11.348;2023-06-14T07:12:34;96138.41;;;20.75;53.42
30339;BME280;795;49.296;11.348;2023-06-14T07:15:09;96012.13;;;19.47;52.47
30339;BME280;795;49.296;11.348;2023-06-14T07:17:36;96147.81;;;20.03;53.26
30339;BME280;795;49.296;11.348;2023-06-14T07:20:05;96142.53;;;20.77;50.89
30339;BME280;795;49.296;11.348;2023-06-14T07:22:43;96136.81;;;21.02;50.75
30339;BME280;795;49.296;11.348;2023-06-14T07:25:12;96096.53;;;20.58;50.23
30339;BME280;795;49.296;11.348;2023-06-14T07:27:42;96151.56;;;20.66;50.54
30339;BME280;795;49.296;11.348;2023-06-14T07:30:10;96137.66;;;21.14;50.33
30339;BME280;795;49.296;11.348;2023-06-14T07:32:38;96120.75;;;20.66;49.91
30339;BME280;795;49.296;11.348;2023-06-14T07:35:05;96155.25;;;20.60;51.05
30339;BME280;795;49.296;11.348;2023-06-14T07:37:33;96159.38;;;20.28;52.16
30339;BME280;795;49.296;11.348;2023-06-14T07:40:00;96163.63;;;20.93;50.92
30339;BME280;795;49.296;11.348;2023-06-14T07:42:29;96120.06;;;21.50;49.27
30339;BME280;795;49.296;11.348;2023-06-14T07:44:56;96140.28;;;21.65;47.43
30339;BME280;795;49.296;11.348;2023-06-14T07:47:23;96163.88;;;22.11;46.19
30339;BME280;795;49.296;11.348;2023-06-14T07:49:50;96094.78;;;21.71;46.40
30339;BME280;795;49.296;11.348;2023-06-14T07:52:17;96128.59;;;21.81;45.18
30339;BME280;795;49.296;11.348;2023-06-14T07:54:45;96170.53;;;21.75;45.71
30339;BME280;795;49.296;11.348;2023-06-14T07:57:13;96150.59;;;21.87;46.12
30339;BME280;795;49.296;11.348;2023-06-14T07:59:40;96172.31;;;22.26;44.74
30339;BME280;795;49.296;11.348;2023-06-14T08:03:35;96177.78;;;22.43;43.48
30339;BME280;795;49.296;11.348;2023-06-14T08:06:03;96190.09;;;22.74;42.89
30339;BME280;795;49.296;11.348;2023-06-14T08:08:31;96178.47;;;23.22;43.25
30339;BME280;795;49.296;11.348;2023-06-14T08:10:58;96146.31;;;22.74;42.02
30339;BME280;795;49.296;11.348;2023-06-14T08:13:25;96144.06;;;22.54;42.35
30339;BME280;795;49.296;11.348;2023-06-14T08:15:52;96162.84;;;22.62;42.96
30339;BME280;795;49.296;11.348;2023-06-14T08:18:19;96152.44;;;22.14;43.24
30339;BME280;795;49.296;11.348;2023-06-14T08:20:46;96170.66;;;22.59;44.00
30339;BME280;795;49.296;11.348;2023-06-14T08:23:14;96180.19;;;22.89;41.54
30339;BME280;795;49.296;11.348;2023-06-14T08:25:42;96120.28;;;22.55;42.67
30339;BME280;795;49.296;11.348;2023-06-14T08:28:09;96185.38;;;23.67;41.29
30339;BME280;795;49.296;11.348;2023-06-14T08:30:36;96122.31;;;23.41;41.03
30339;BME280;795;49.296;11.348;2023-06-14T08:33:03;96189.69;;;24.65;38.80
30339;BME280;795;49.296;11.348;2023-06-14T08:35:43;96125.28;;;24.78;38.24
30339;BME280;795;49.296;11.348;2023-06-14T08:38:11;96195.13;;;23.80;39.56
30339;BME280;795;49.296;11.348;2023-06-14T08:40:41;96189.16;;;23.23;39.67
30339;BME280;795;49.296;11.348;2023-06-14T08:43:09;96173.41;;;22.42;40.70
30339;BME280;795;49.296;11.348;2023-06-14T08:45:36;96141.41;;;21.81;42.23
30339;BME280;795;49.296;11.348;2023-06-14T08:48:06;96200.34;;;21.89;41.89
30339;BME280;795;49.296;11.348;2023-06-14T08:50:39;96201.00;;;22.40;41.05
30339;BME280;795;49.296;11.348;2023-06-14T08:53:12;96211.00;;;22.63;39.81
30339;BME280;795;49.296;11.348;2023-06-14T08:55:46;96201.25;;;23.44;39.13
30339;BME280;795;49.296;11.348;2023-06-14T08:58:14;96198.53;;;24.40;37.70
30339;BME280;795;49.296;11.348;2023-06-14T09:00:43;96215.00;;;23.92;39.29
30339;BME280;795;49.296;11.348;2023-06-14T09:03:11;96167.81;;;23.42;39.26
30339;BME280;795;49.296;11.348;2023-06-14T09:05:41;96202.31;;;23.86;39.90
30339;BME280;795;49.296;11.348;2023-06-14T09:08:08;96165.31;;;24.10;38.33
30339;BME280;795;49.296;11.348;2023-06-14T09:10:35;96133.09;;;24.01;37.77
30339;BME280;795;49.296;11.348;2023-06-14T09:13:05;96216.69;;;24.20;38.32
30339;BME280;795;49.296;11.348;2023-06-14T09:15:34;96214.88;;;24.30;38.28
30339;BME280;795;49.296;11.348;2023-06-14T09:18:02;96162.97;;;24.24;38.56
30339;BME280;795;49.296;11.348;2023-06-14T09:20:31;96139.94;;;24.93;37.73
30339;BME280;795;49.296;11.348;2023-06-14T09:23:00;96213.78;;;25.32;36.97
30339;BME280;795;49.296;11.348;2023-06-14T09:25:28;96208.22;;;25.22;37.89
30339;BME280;795;49.296;11.348;2023-06-14T09:27:58;96211.69;;;25.02;37.67
30339;BME280;795;49.296;11.348;2023-06-14T09:30:25;96134.97;;;24.90;36.83
30339;BME280;795;49.296;11.348;2023-06-14T09:32:51;96206.88;;;25.29;36.61
30339;BME280;795;49.296;11.348;2023-06-14T09:35:18;96143.94;;;25.80;35.35
30339;BME280;795;49.296;11.348;2023-06-14T09:37:47;96202.38;;;25.50;33.87
30339;BME280;795;49.296;11.348;2023-06-14T09:40:21;96209.84;;;25.59;34.55
30339;BME280;795;49.296;11.348;2023-06-14T09:42:49;96207.72;;;25.77;34.43
30339;BME280;795;49.296;11.348;2023-06-14T09:45:17;96176.75;;;26.21;32.82
30339;BME280;795;49.296;11.348;2023-06-14T09:47:51;96170.72;;;26.75;33.16
30339;BME280;795;49.296;11.348;2023-06-14T09:50:34;96175.38;;;27.25;32.44
30339;BME280;795;49.296;11.348;2023-06-14T09:53:11;96179.03;;;27.89;29.97
30339;BME280;795;49.296;11.348;2023-06-14T09:55:41;96220.56;;;29.34;30.20
30339;BME280;795;49.296;11.348;2023-06-14T09:58:10;96185.88;;;28.89;30.15
30339;BME280;795;49.296;11.348;2023-06-14T10:00:41;96215.28;;;27.68;32.76
30339;BME280;795;49.296;11.348;2023-06-14T10:03:14;96200.53;;;26.93;34.21
30339;BME280;795;49.296;11.348;2023-06-14T10:05:47;96153.56;;;25.97;35.58
30339;BME280;795;49.296;11.348;2023-06-14T10:08:25;96112.38;;;24.78;36.45
30339;BME280;795;49.296;11.348;2023-06-14T10:10:57;96192.56;;;24.80;37.47
30339;BME280;795;49.296;11.348;2023-06-14T10:13:28;96203.34;;;23.80;39.23
30339;BME280;795;49.296;11.348;2023-06-14T10:19:25;96129.88;;;23.55;39.34
30339;BME280;795;49.296;11.348;2023-06-14T10:22:14;96223.66;;;25.75;36.63
30339;BME280;795;49.296;11.348;2023-06-14T10:24:45;96139.00;;;25.97;34.33
30339;BME280;795;49.296;11.348;2023-06-14T10:27:16;96211.72;;;26.21;35.08
30339;BME280;795;49.296;11.348;2023-06-14T10:32:26;96178.06;;;25.37;36.25
30339;BME280;795;49.296;11.348;2023-06-14T10:34:58;96227.25;;;24.33;37.34
30339;BME280;795;49.296;11.348;2023-06-14T10:37:26;96214.59;;;24.90;37.27
30339;BME280;795;49.296;11.348;2023-06-14T10:39:53;96231.16;;;24.69;36.41
30339;BME280;795;49.296;11.348;2023-06-14T10:42:21;96187.63;;;23.97;36.52
30339;BME280;795;49.296;11.348;2023-06-14T10:44:54;96176.88;;;23.69;37.81
30339;BME280;795;49.296;11.348;2023-06-14T10:47:32;96227.38;;;24.16;37.25
30339;BME280;795;49.296;11.348;2023-06-14T10:50:09;96189.66;;;23.80;36.97
30339;BME280;795;49.296;11.348;2023-06-14T10:52:43;96141.66;;;23.13;37.22
30339;BME280;795;49.296;11.348;2023-06-14T10:55:15;96141.22;;;22.82;36.78
30339;BME280;795;49.296;11.348;2023-06-14T10:57:53;96215.75;;;23.06;37.74
30339;BME280;795;49.296;11.348;2023-06-14T11:00:28;96210.97;;;22.46;38.51
30339;BME280;795;49.296;11.348;2023-06-14T11:03:43;96223.00;;;22.95;37.41
30339;BME280;795;49.296;11.348;2023-06-14T11:06:22;96112.31;;;22.36;38.29
30339;BME280;795;49.296;11.348;2023-06-14T11:09:45;96217.25;;;23.73;37.27
30339;BME280;795;49.296;11.348;2023-06-14T11:12:19;96178.59;;;24.23;36.06
30339;BME280;795;49.296;11.348;2023-06-14T11:14:48;96196.66;;;25.66;34.14
30339;BME280;795;49.296;11.348;2023-06-14T11:17:15;96213.72;;;26.71;32.00
30339;BME280;795;49.296;11.348;2023-06-14T11:19:42;96203.50;;;27.32;32.06
30339;BME280;795;49.296;11.348;2023-06-14T11:22:09;96222.09;;;28.39;29.93
30339;BME280;795;49.296;11.348;2023-06-14T11:24:36;96219.75;;;28.17;30.80
30339;BME280;795;49.296;11.348;2023-06-14T11:27:03;96215.38;;;26.97;31.85
30339;BME280;795;49.296;11.348;2023-06-14T11:29:30;96130.25;;;25.33;34.00
30339;BME280;795;49.296;11.348;2023-06-14T11:31:58;96147.94;;;25.05;34.68
30339;BME280;795;49.296;11.348;2023-06-14T11:34:25;96207.31;;;24.74;35.64
30339;BME280;795;49.296;11.348;2023-06-14T11:36:52;96213.25;;;24.93;35.25
30339;BME280;795;49.296;11.348;2023-06-14T11:39:25;96212.50;;;24.39;36.02
30339;BME280;795;49.296;11.348;2023-06-14T11:41:52;96212.25;;;24.40;36.43
30339;BME280;795;49.296;11.348;2023-06-14T11:44:19;96214.09;;;24.35;35.67
30339;BME280;795;49.296;11.348;2023-06-14T11:46:46;96212.97;;;24.31;36.17
30339;BME280;795;49.296;11.348;2023-06-14T11:49:13;96159.09;;;23.71;36.73
30339;BME280;795;49.296;11.348;2023-06-14T11:51:43;96213.16;;;24.78;35.61
30339;BME280;795;49.296;11.348;2023-06-14T11:54:10;96213.53;;;24.91;36.14
30339;BME280;795;49.296;11.348;2023-06-14T11:56:37;96197.47;;;24.78;36.26
30339;BME280;795;49.296;11.348;2023-06-14T11:59:05;96218.50;;;24.94;35.21
30339;BME280;795;49.296;11.348;2023-06-14T12:01:36;96215.13;;;24.82;35.18
30339;BME280;795;49.296;11.348;2023-06-14T12:04:05;96210.22;;;24.89;35.09
30339;BME280;795;49.296;11.348;2023-06-14T12:06:32;96126.44;;;24.87;34.78
30339;BME280;795;49.296;11.348;2023-06-14T12:09:04;96179.56;;;26.92;32.05
30339;BME280;795;49.296;11.348;2023-06-14T12:11:36;96177.63;;;26.67;33.01
30339;BME280;795;49.296;11.348;2023-06-14T12:14:05;96209.25;;;27.50;31.93
30339;BME280;795;49.296;11.348;2023-06-14T12:16:37;96197.81;;;27.87;31.07
30339;BME280;795;49.296;11.348;2023-06-14T12:19:16;96202.00;;;27.70;31.09
30339;BME280;795;49.296;11.348;2023-06-14T12:21:47;96137.97;;;26.23;32.63
30339;BME280;795;49.296;11.348;2023-06-14T12:24:16;96189.50;;;25.14;34.03
30339;BME280;795;49.296;11.348;2023-06-14T12:26:43;96192.59;;;24.85;34.44
30339;BME280;795;49.296;11.348;2023-06-14T12:29:10;96209.53;;;25.09;33.91
30339;BME280;795;49.296;11.348;2023-06-14T12:31:40;96192.69;;;25.42;33.32
30339;BME280;795;49.296;11.348;2023-06-14T12:34:07;96182.81;;;26.23;32.89
30339;BME280;795;49.296;11.348;2023-06-14T12:36:35;96112.03;;;27.15;31.33
30339;BME280;795;49.296;11.348;2023-06-14T12:39:07;96189.66;;;27.52;30.47
30339;BME280;795;49.296;11.348;2023-06-14T12:41:35;96194.94;;;26.43;31.96
30339;BME280;795;49.296;11.348;2023-06-14T12:44:04;96190.13;;;24.84;33.70
30339;BME280;795;49.296;11.348;2023-06-14T12:46:31;96197.81;;;24.23;35.36
30339;BME280;795;49.296;11.348;2023-06-14T12:49:01;96150.22;;;24.76;34.29
30339;BME280;795;49.296;11.348;2023-06-14T12:51:27;96199.91;;;26.41;32.45
30339;BME280;795;49.296;11.348;2023-06-14T12:53:54;96205.25;;;28.84;29.09
30339;BME280;795;49.296;11.348;2023-06-14T12:56:22;96210.50;;;29.96;27.81
30339;BME280;795;49.296;11.348;2023-06-14T12:58:51;96186.38;;;28.63;28.64
30339;BME280;795;49.296;11.348;2023-06-14T13:01:19;96219.94;;;28.80;28.42
30339;BME280;795;49.296;11.348;2023-06-14T13:03:47;96213.19;;;29.25;28.16
30339;BME280;795;49.296;11.348;2023-06-14T13:06:17;96206.50;;;28.97;27.98
30339;BME280;795;49.296;11.348;2023-06-14T13:08:43;96209.13;;;28.83;28.03
30339;BME280;795;49.296;11.348;2023-06-14T13:11:10;96203.47;;;28.16;29.27
30339;BME280;795;49.296;11.348;2023-06-14T13:13:38;96199.34;;;28.62;28.74
30339;BME280;795;49.296;11.348;2023-06-14T13:16:05;96205.19;;;27.13;30.70
30339;BME280;795;49.296;11.348;2023-06-14T13:18:32;96191.28;;;26.07;32.57
30339;BME280;795;49.296;11.348;2023-06-14T13:20:59;96206.44;;;25.00;33.99
30339;BME280;795;49.296;11.348;2023-06-14T13:23:26;96210.78;;;24.33;34.79
30339;BME280;795;49.296;11.348;2023-06-14T13:25:53;96206.44;;;24.37;35.43
30339;BME280;795;49.296;11.348;2023-06-14T13:28:20;96205.34;;;24.38;35.08
30339;BME280;795;49.296;11.348;2023-06-14T13:30:47;96200.00;;;24.21;35.03